sensor_id;sensor_type;location;lat;lon;timestamp;P1;durP1;ratioP1;P2;durP2;ratioP2
25083;SDS011;13075;55.682;37.564;2022-07-06T00:01:15;24.45;;;20.90;;
25083;SDS011;13075;55.682;37.564;2022-07-06T00:03:41;27.08;;;21.83;;
25083;SDS011;13075;55.682;37.564;2022-07-06T00:06:07;23.77;;;21.25;;
25083;SDS011;13075;55.682;37.564;2022-07-06T00:08:33;23.60;;;21.10;;
25083;SDS011;13075;55.682;37.564;2022-07-06T00:10:59;29.35;;;21.02;;
25083;SDS011;13075;55.682;37.564;2022-07-06T00:13:25;25.38;;;22.08;;
25083;SDS011;13075;55.682;37.564;2022-07-06T00:15:51;23.92;;;21.45;;
25083;SDS011;13075;55.682;37.564;2022-07-06T00:18:16;25.92;;;21.48;;
25083;SDS011;13075;55.682;37.564;2022-07-06T00:20:42;24.83;;;22.23;;
25083;SDS011;13075;55.682;37.564;2022-07-06T00:23:07;25.63;;;21.88;;
25083;SDS011;13075;55.682;37.564;2022-07-06T00:25:33;27.15;;;22.00;;
25083;SDS011;13075;55.682;37.564;2022-07-06T00:27:59;27.10;;;22.83;;
25083;SDS011;13075;55.682;37.564;2022-07-06T00:30:25;25.67;;;20.63;;
25083;SDS011;13075;55.682;37.564;2022-07-06T00:32:51;38.78;;;21.80;;
25083;SDS011;13075;55.682;37.564;2022-07-06T00:35:16;28.90;;;21.77;;
25083;SDS011;13075;55.682;37.564;2022-07-06T00:37:42;23.30;;;19.80;;
25083;SDS011;13075;55.682;37.564;2022-07-06T00:40:07;23.23;;;20.45;;
25083;SDS011;13075;55.682;37.564;2022-07-06T00:42:40;25.67;;;23.10;;
25083;SDS011;13075;55.682;37.564;2022-07-06T00:45:06;22.75;;;19.88;;
25083;SDS011;13075;55.682;37.564;2022-07-06T00:47:32;29.35;;;20.73;;
25083;SDS011;13075;55.682;37.564;2022-07-06T00:49:58;25.50;;;21.48;;
25083;SDS011;13075;55.682;37.564;2022-07-06T00:55:12;27.10;;;21.00;;
25083;SDS011;13075;55.682;37.564;2022-07-06T00:57:38;26.75;;;22.45;;
25083;SDS011;13075;55.682;37.564;2022-07-06T01:00:06;25.38;;;22.40;;
25083;SDS011;13075;55.682;37.564;2022-07-06T01:02:34;34.38;;;25.35;;
25083;SDS011;13075;55.682;37.564;2022-07-06T01:05:01;32.22;;;23.70;;
25083;SDS011;13075;55.682;37.564;2022-07-06T01:07:29;24.63;;;20.27;;
25083;SDS011;13075;55.682;37.564;2022-07-06T01:09:55;32.25;;;23.70;;
25083;SDS011;13075;55.682;37.564;2022-07-06T01:12:21;25.58;;;22.58;;
25083;SDS011;13075;55.682;37.564;2022-07-06T01:14:47;25.30;;;21.73;;
25083;SDS011;13075;55.682;37.564;2022-07-06T01:17:13;25.77;;;22.23;;
25083;SDS011;13075;55.682;37.564;2022-07-06T01:19:40;29.55;;;23.33;;
25083;SDS011;13075;55.682;37.564;2022-07-06T01:22:06;28.30;;;23.48;;
25083;SDS011;13075;55.682;37.564;2022-07-06T01:24:31;31.05;;;23.63;;
25083;SDS011;13075;55.682;37.564;2022-07-06T01:27:00;26.17;;;21.73;;
25083;SDS011;13075;55.682;37.564;2022-07-06T01:29:26;29.00;;;22.90;;
25083;SDS011;13075;55.682;37.564;2022-07-06T01:31:52;27.40;;;21.45;;
25083;SDS011;13075;55.682;37.564;2022-07-06T01:34:18;26.50;;;22.23;;
25083;SDS011;13075;55.682;37.564;2022-07-06T01:36:44;26.38;;;21.23;;
25083;SDS011;13075;55.682;37.564;2022-07-06T01:39:10;23.83;;;21.20;;
25083;SDS011;13075;55.682;37.564;2022-07-06T01:41:36;22.55;;;19.73;;
25083;SDS011;13075;55.682;37.564;2022-07-06T01:44:02;27.38;;;20.90;;
25083;SDS011;13075;55.682;37.564;2022-07-06T01:46:29;25.67;;;21.67;;
25083;SDS011;13075;55.682;37.564;2022-07-06T01:48:55;24.33;;;20.95;;
25083;SDS011;13075;55.682;37.564;2022-07-06T01:51:21;26.20;;;21.27;;
25083;SDS011;13075;55.682;37.564;2022-07-06T01:53:46;23.35;;;20.73;;
25083;SDS011;13075;55.682;37.564;2022-07-06T01:56:15;24.25;;;21.00;;
25083;SDS011;13075;55.682;37.564;2022-07-06T01:58:45;25.48;;;21.00;;
25083;SDS011;13075;55.682;37.564;2022-07-06T02:01:14;22.90;;;20.48;;
25083;SDS011;13075;55.682;37.564;2022-07-06T02:03:42;25.23;;;20.10;;
25083;SDS011;13075;55.682;37.564;2022-07-06T02:06:08;23.73;;;18.95;;
25083;SDS011;13075;55.682;37.564;2022-07-06T02:08:35;24.25;;;19.63;;
25083;SDS011;13075;55.682;37.564;2022-07-06T02:11:02;24.92;;;19.38;;
25083;SDS011;13075;55.682;37.564;2022-07-06T02:13:29;25.25;;;19.08;;
25083;SDS011;13075;55.682;37.564;2022-07-06T02:15:55;24.50;;;20.90;;
25083;SDS011;13075;55.682;37.564;2022-07-06T02:18:20;20.65;;;18.35;;
25083;SDS011;13075;55.682;37.564;2022-07-06T02:20:46;25.83;;;20.05;;
25083;SDS011;13075;55.682;37.564;2022-07-06T02:23:12;20.30;;;18.05;;
25083;SDS011;13075;55.682;37.564;2022-07-06T02:25:39;22.70;;;18.95;;
25083;SDS011;13075;55.682;37.564;2022-07-06T02:28:04;20.75;;;18.52;;
25083;SDS011;13075;55.682;37.564;2022-07-06T02:30:30;23.73;;;18.60;;
25083;SDS011;13075;55.682;37.564;2022-07-06T02:32:56;20.15;;;18.05;;
25083;SDS011;13075;55.682;37.564;2022-07-06T02:35:22;22.27;;;18.73;;
25083;SDS011;13075;55.682;37.564;2022-07-06T02:37:48;25.08;;;18.10;;
25083;SDS011;13075;55.682;37.564;2022-07-06T02:40:15;22.02;;;19.65;;
25083;SDS011;13075;55.682;37.564;2022-07-06T02:42:40;26.73;;;19.38;;
25083;SDS011;13075;55.682;37.564;2022-07-06T02:45:08;23.80;;;18.73;;
25083;SDS011;13075;55.682;37.564;2022-07-06T02:47:34;21.75;;;18.17;;
25083;SDS011;13075;55.682;37.564;2022-07-06T02:50:00;23.80;;;19.13;;
25083;SDS011;13075;55.682;37.564;2022-07-06T02:52:26;28.33;;;18.08;;
25083;SDS011;13075;55.682;37.564;2022-07-06T02:54:53;25.98;;;19.30;;
25083;SDS011;13075;55.682;37.564;2022-07-06T02:57:19;26.05;;;18.92;;
25083;SDS011;13075;55.682;37.564;2022-07-06T02:59:45;24.02;;;20.23;;
25083;SDS011;13075;55.682;37.564;2022-07-06T03:02:12;22.48;;;19.75;;
25083;SDS011;13075;55.682;37.564;2022-07-06T03:04:38;25.83;;;19.38;;
25083;SDS011;13075;55.682;37.564;2022-07-06T03:07:04;27.45;;;18.73;;
25083;SDS011;13075;55.682;37.564;2022-07-06T03:09:30;22.88;;;19.05;;
25083;SDS011;13075;55.682;37.564;2022-07-06T03:11:55;22.27;;;19.88;;
25083;SDS011;13075;55.682;37.564;2022-07-06T03:14:21;26.88;;;19.02;;
25083;SDS011;13075;55.682;37.564;2022-07-06T03:16:48;22.02;;;19.45;;
25083;SDS011;13075;55.682;37.564;2022-07-06T03:19:14;25.92;;;20.63;;
25083;SDS011;13075;55.682;37.564;2022-07-06T03:21:41;24.25;;;19.13;;
25083;SDS011;13075;55.682;37.564;2022-07-06T03:24:06;22.63;;;18.50;;
25083;SDS011;13075;55.682;37.564;2022-07-06T03:26:32;23.20;;;19.63;;
25083;SDS011;13075;55.682;37.564;2022-07-06T03:28:58;27.58;;;19.30;;
25083;SDS011;13075;55.682;37.564;2022-07-06T03:31:24;23.13;;;19.85;;
25083;SDS011;13075;55.682;37.564;2022-07-06T03:33:50;21.60;;;18.92;;
25083;SDS011;13075;55.682;37.564;2022-07-06T03:36:17;20.92;;;18.73;;
25083;SDS011;13075;55.682;37.564;2022-07-06T03:38:43;21.52;;;18.58;;
25083;SDS011;13075;55.682;37.564;2022-07-06T03:41:09;24.77;;;19.75;;
25083;SDS011;13075;55.682;37.564;2022-07-06T03:43:35;19.98;;;17.40;;
25083;SDS011;13075;55.682;37.564;2022-07-06T03:46:01;19.13;;;16.52;;
25083;SDS011;13075;55.682;37.564;2022-07-06T03:48:27;19.20;;;15.20;;
25083;SDS011;13075;55.682;37.564;2022-07-06T03:50:54;17.48;;;15.68;;
25083;SDS011;13075;55.682;37.564;2022-07-06T03:53:20;21.33;;;16.42;;
25083;SDS011;13075;55.682;37.564;2022-07-06T03:55:46;18.27;;;16.38;;
25083;SDS011;13075;55.682;37.564;2022-07-06T03:58:33;22.20;;;17.45;;
25083;SDS011;13075;55.682;37.564;2022-07-06T04:00:59;20.60;;;16.75;;
25083;SDS011;13075;55.682;37.564;2022-07-06T04:03:25;18.15;;;16.27;;
25083;SDS011;13075;55.682;37.564;2022-07-06T04:05:52;29.30;;;17.23;;
25083;SDS011;13075;55.682;37.564;2022-07-06T04:08:18;21.98;;;16.33;;
25083;SDS011;13075;55.682;37.564;2022-07-06T04:10:50;19.17;;;15.95;;
25083;SDS011;13075;55.682;37.564;2022-07-06T04:13:16;19.83;;;15.93;;
25083;SDS011;13075;55.682;37.564;2022-07-06T04:15:41;18.17;;;15.45;;
25083;SDS011;13075;55.682;37.564;2022-07-06T04:18:07;16.42;;;14.73;;
25083;SDS011;13075;55.682;37.564;2022-07-06T04:20:42;21.15;;;17.65;;
25083;SDS011;13075;55.682;37.564;2022-07-06T04:23:08;17.77;;;15.88;;
25083;SDS011;13075;55.682;37.564;2022-07-06T04:25:34;23.08;;;14.95;;
25083;SDS011;13075;55.682;37.564;2022-07-06T04:28:01;22.35;;;15.23;;
25083;SDS011;13075;55.682;37.564;2022-07-06T04:30:28;21.85;;;16.50;;
25083;SDS011;13075;55.682;37.564;2022-07-06T04:32:54;20.35;;;18.23;;
25083;SDS011;13075;55.682;37.564;2022-07-06T04:35:26;19.73;;;17.35;;
25083;SDS011;13075;55.682;37.564;2022-07-06T04:37:53;21.75;;;17.30;;
25083;SDS011;13075;55.682;37.564;2022-07-06T04:40:20;21.85;;;17.73;;
25083;SDS011;13075;55.682;37.564;2022-07-06T04:42:48;25.45;;;16.75;;
25083;SDS011;13075;55.682;37.564;2022-07-06T04:45:15;23.42;;;18.10;;
25083;SDS011;13075;55.682;37.564;2022-07-06T04:47:41;22.35;;;16.70;;
25083;SDS011;13075;55.682;37.564;2022-07-06T04:50:08;18.23;;;16.35;;
25083;SDS011;13075;55.682;37.564;2022-07-06T04:52:34;18.38;;;15.93;;
25083;SDS011;13075;55.682;37.564;2022-07-06T04:55:00;19.38;;;16.95;;
25083;SDS011;13075;55.682;37.564;2022-07-06T04:57:25;16.45;;;14.65;;
25083;SDS011;13075;55.682;37.564;2022-07-06T04:59:53;18.33;;;14.63;;
25083;SDS011;13075;55.682;37.564;2022-07-06T05:02:19;25.15;;;16.73;;
25083;SDS011;13075;55.682;37.564;2022-07-06T05:04:45;17.17;;;15.57;;
25083;SDS011;13075;55.682;37.564;2022-07-06T05:07:10;17.08;;;15.38;;
25083;SDS011;13075;55.682;37.564;2022-07-06T05:09:36;18.83;;;14.77;;
25083;SDS011;13075;55.682;37.564;2022-07-06T05:12:02;22.20;;;15.25;;
25083;SDS011;13075;55.682;37.564;2022-07-06T05:14:28;17.40;;;14.48;;
25083;SDS011;13075;55.682;37.564;2022-07-06T05:16:55;17.48;;;13.85;;
25083;SDS011;13075;55.682;37.564;2022-07-06T05:19:22;16.60;;;13.52;;
25083;SDS011;13075;55.682;37.564;2022-07-06T05:21:48;15.55;;;12.88;;
25083;SDS011;13075;55.682;37.564;2022-07-06T05:24:14;15.88;;;13.90;;
25083;SDS011;13075;55.682;37.564;2022-07-06T05:26:41;17.13;;;13.10;;
25083;SDS011;13075;55.682;37.564;2022-07-06T05:29:07;14.82;;;13.10;;
25083;SDS011;13075;55.682;37.564;2022-07-06T05:31:33;20.52;;;13.40;;
25083;SDS011;13075;55.682;37.564;2022-07-06T05:33:59;18.00;;;12.77;;
25083;SDS011;13075;55.682;37.564;2022-07-06T05:36:24;17.33;;;14.50;;
25083;SDS011;13075;55.682;37.564;2022-07-06T05:38:51;21.17;;;15.55;;
25083;SDS011;13075;55.682;37.564;2022-07-06T05:41:17;16.00;;;13.00;;
25083;SDS011;13075;55.682;37.564;2022-07-06T05:43:43;16.42;;;14.23;;
25083;SDS011;13075;55.682;37.564;2022-07-06T05:46:09;13.88;;;12.02;;
25083;SDS011;13075;55.682;37.564;2022-07-06T05:48:35;19.05;;;12.23;;
25083;SDS011;13075;55.682;37.564;2022-07-06T05:51:19;21.00;;;12.93;;
25083;SDS011;13075;55.682;37.564;2022-07-06T05:53:46;20.40;;;12.88;;
25083;SDS011;13075;55.682;37.564;2022-07-06T05:56:13;16.48;;;12.65;;
25083;SDS011;13075;55.682;37.564;2022-07-06T05:58:39;22.30;;;16.10;;
25083;SDS011;13075;55.682;37.564;2022-07-06T06:01:05;12.00;;;10.75;;
25083;SDS011;13075;55.682;37.564;2022-07-06T06:03:34;20.98;;;12.18;;
25083;SDS011;13075;55.682;37.564;2022-07-06T06:06:02;14.95;;;13.38;;
25083;SDS011;13075;55.682;37.564;2022-07-06T06:08:28;20.60;;;12.90;;
25083;SDS011;13075;55.682;37.564;2022-07-06T06:10:54;16.80;;;13.90;;
25083;SDS011;13075;55.682;37.564;2022-07-06T06:13:22;16.05;;;12.10;;
25083;SDS011;13075;55.682;37.564;2022-07-06T06:15:48;18.85;;;12.10;;
25083;SDS011;13075;55.682;37.564;2022-07-06T06:18:14;12.88;;;11.60;;
25083;SDS011;13075;55.682;37.564;2022-07-06T06:20:42;13.50;;;12.10;;
25083;SDS011;13075;55.682;37.564;2022-07-06T06:23:08;13.35;;;11.95;;
25083;SDS011;13075;55.682;37.564;2022-07-06T06:25:34;17.65;;;13.50;;
25083;SDS011;13075;55.682;37.564;2022-07-06T06:28:11;14.77;;;11.73;;
25083;SDS011;13075;55.682;37.564;2022-07-06T06:30:37;18.00;;;13.02;;
25083;SDS011;13075;55.682;37.564;2022-07-06T06:33:07;14.27;;;12.60;;
25083;SDS011;13075;55.682;37.564;2022-07-06T06:35:38;21.40;;;13.63;;
25083;SDS011;13075;55.682;37.564;2022-07-06T06:38:08;15.25;;;13.65;;
25083;SDS011;13075;55.682;37.564;2022-07-06T06:40:33;23.85;;;12.90;;
25083;SDS011;13075;55.682;37.564;2022-07-06T06:42:59;13.35;;;10.48;;
25083;SDS011;13075;55.682;37.564;2022-07-06T06:45:25;11.90;;;9.55;;
25083;SDS011;13075;55.682;37.564;2022-07-06T06:47:51;11.40;;;10.30;;
25083;SDS011;13075;55.682;37.564;2022-07-06T06:50:16;13.73;;;11.77;;
25083;SDS011;13075;55.682;37.564;2022-07-06T06:52:42;18.52;;;9.88;;
25083;SDS011;13075;55.682;37.564;2022-07-06T06:55:08;26.13;;;14.20;;
25083;SDS011;13075;55.682;37.564;2022-07-06T06:57:34;16.30;;;10.23;;
25083;SDS011;13075;55.682;37.564;2022-07-06T07:00:00;13.68;;;10.35;;
25083;SDS011;13075;55.682;37.564;2022-07-06T07:02:25;11.50;;;10.23;;
25083;SDS011;13075;55.682;37.564;2022-07-06T07:04:51;10.57;;;9.52;;
25083;SDS011;13075;55.682;37.564;2022-07-06T07:07:16;21.23;;;12.20;;
25083;SDS011;13075;55.682;37.564;2022-07-06T07:09:42;64.60;;;16.65;;
25083;SDS011;13075;55.682;37.564;2022-07-06T07:12:07;13.45;;;11.85;;
25083;SDS011;13075;55.682;37.564;2022-07-06T07:14:33;14.82;;;12.32;;
25083;SDS011;13075;55.682;37.564;2022-07-06T07:16:59;11.60;;;10.20;;
25083;SDS011;13075;55.682;37.564;2022-07-06T07:19:25;12.15;;;10.95;;
25083;SDS011;13075;55.682;37.564;2022-07-06T07:21:50;12.50;;;11.35;;
25083;SDS011;13075;55.682;37.564;2022-07-06T07:24:16;13.15;;;11.70;;
25083;SDS011;13075;55.682;37.564;2022-07-06T07:26:42;15.35;;;10.60;;
25083;SDS011;13075;55.682;37.564;2022-07-06T07:29:07;12.57;;;11.40;;
25083;SDS011;13075;55.682;37.564;2022-07-06T07:31:33;11.82;;;10.63;;
25083;SDS011;13075;55.682;37.564;2022-07-06T07:33:58;10.85;;;9.77;;
25083;SDS011;13075;55.682;37.564;2022-07-06T07:36:25;11.43;;;10.43;;
25083;SDS011;13075;55.682;37.564;2022-07-06T07:38:51;15.38;;;10.93;;
25083;SDS011;13075;55.682;37.564;2022-07-06T07:41:17;44.58;;;13.77;;
25083;SDS011;13075;55.682;37.564;2022-07-06T07:43:43;11.48;;;10.35;;
25083;SDS011;13075;55.682;37.564;2022-07-06T07:46:09;18.85;;;10.52;;
25083;SDS011;13075;55.682;37.564;2022-07-06T07:48:34;9.85;;;8.95;;
25083;SDS011;13075;55.682;37.564;2022-07-06T07:51:01;9.90;;;8.63;;
25083;SDS011;13075;55.682;37.564;2022-07-06T07:53:26;10.60;;;9.55;;
25083;SDS011;13075;55.682;37.564;2022-07-06T07:55:52;11.13;;;9.40;;
25083;SDS011;13075;55.682;37.564;2022-07-06T07:58:18;11.70;;;10.48;;
25083;SDS011;13075;55.682;37.564;2022-07-06T08:00:44;12.82;;;11.02;;
25083;SDS011;13075;55.682;37.564;2022-07-06T08:03:11;12.18;;;10.68;;
25083;SDS011;13075;55.682;37.564;2022-07-06T08:05:37;10.68;;;9.68;;
25083;SDS011;13075;55.682;37.564;2022-07-06T08:08:02;11.60;;;10.63;;
25083;SDS011;13075;55.682;37.564;2022-07-06T08:10:29;12.55;;;11.50;;
25083;SDS011;13075;55.682;37.564;2022-07-06T08:12:55;13.30;;;11.98;;
25083;SDS011;13075;55.682;37.564;2022-07-06T08:15:21;13.48;;;11.88;;
25083;SDS011;13075;55.682;37.564;2022-07-06T08:17:47;13.13;;;10.98;;
25083;SDS011;13075;55.682;37.564;2022-07-06T08:20:13;15.80;;;12.30;;
25083;SDS011;13075;55.682;37.564;2022-07-06T08:22:39;13.75;;;12.50;;
25083;SDS011;13075;55.682;37.564;2022-07-06T08:25:05;12.50;;;11.25;;
25083;SDS011;13075;55.682;37.564;2022-07-06T08:27:31;14.90;;;11.98;;
25083;SDS011;13075;55.682;37.564;2022-07-06T08:29:56;13.35;;;12.25;;
25083;SDS011;13075;55.682;37.564;2022-07-06T08:32:22;14.15;;;12.85;;
25083;SDS011;13075;55.682;37.564;2022-07-06T08:34:48;13.73;;;12.43;;
25083;SDS011;13075;55.682;37.564;2022-07-06T08:37:13;14.20;;;12.73;;
25083;SDS011;13075;55.682;37.564;2022-07-06T08:39:39;13.57;;;11.98;;
25083;SDS011;13075;55.682;37.564;2022-07-06T08:42:05;13.00;;;11.77;;
25083;SDS011;13075;55.682;37.564;2022-07-06T08:44:33;16.40;;;12.93;;
25083;SDS011;13075;55.682;37.564;2022-07-06T08:47:02;13.55;;;12.13;;
25083;SDS011;13075;55.682;37.564;2022-07-06T08:49:35;14.73;;;13.38;;
25083;SDS011;13075;55.682;37.564;2022-07-06T08:52:02;34.53;;;14.95;;
25083;SDS011;13075;55.682;37.564;2022-07-06T08:54:29;14.38;;;13.07;;
25083;SDS011;13075;55.682;37.564;2022-07-06T08:56:56;17.27;;;14.68;;
25083;SDS011;13075;55.682;37.564;2022-07-06T08:59:22;16.77;;;12.20;;
25083;SDS011;13075;55.682;37.564;2022-07-06T09:01:47;17.60;;;15.38;;
25083;SDS011;13075;55.682;37.564;2022-07-06T09:04:16;15.57;;;14.18;;
25083;SDS011;13075;55.682;37.564;2022-07-06T09:06:46;16.10;;;14.35;;
25083;SDS011;13075;55.682;37.564;2022-07-06T09:09:15;17.55;;;14.30;;
25083;SDS011;13075;55.682;37.564;2022-07-06T09:11:45;16.67;;;14.90;;
25083;SDS011;13075;55.682;37.564;2022-07-06T09:14:11;16.35;;;14.75;;
25083;SDS011;13075;55.682;37.564;2022-07-06T09:16:37;18.73;;;14.25;;
25083;SDS011;13075;55.682;37.564;2022-07-06T09:19:02;19.27;;;15.18;;
25083;SDS011;13075;55.682;37.564;2022-07-06T09:21:29;19.75;;;15.38;;
25083;SDS011;13075;55.682;37.564;2022-07-06T09:24:03;15.25;;;13.75;;
25083;SDS011;13075;55.682;37.564;2022-07-06T09:26:31;14.75;;;13.38;;
25083;SDS011;13075;55.682;37.564;2022-07-06T09:28:57;16.10;;;14.48;;
25083;SDS011;13075;55.682;37.564;2022-07-06T09:31:24;16.48;;;14.88;;
25083;SDS011;13075;55.682;37.564;2022-07-06T09:33:54;28.42;;;17.50;;
25083;SDS011;13075;55.682;37.564;2022-07-06T09:44:18;17.83;;;15.75;;
25083;SDS011;13075;55.682;37.564;2022-07-06T09:47:04;23.38;;;15.77;;
25083;SDS011;13075;55.682;37.564;2022-07-06T09:49:32;16.98;;;15.20;;
25083;SDS011;13075;55.682;37.564;2022-07-06T09:51:58;17.00;;;15.15;;
25083;SDS011;13075;55.682;37.564;2022-07-06T09:54:25;18.85;;;15.38;;
25083;SDS011;13075;55.682;37.564;2022-07-06T09:56:51;16.92;;;15.27;;
25083;SDS011;13075;55.682;37.564;2022-07-06T09:59:19;18.13;;;14.93;;
25083;SDS011;13075;55.682;37.564;2022-07-06T10:01:46;17.42;;;15.65;;
25083;SDS011;13075;55.682;37.564;2022-07-06T10:04:13;16.42;;;14.90;;
25083;SDS011;13075;55.682;37.564;2022-07-06T10:06:39;15.82;;;14.20;;
25083;SDS011;13075;55.682;37.564;2022-07-06T10:09:07;17.20;;;14.40;;
25083;SDS011;13075;55.682;37.564;2022-07-06T10:11:37;17.48;;;14.90;;
25083;SDS011;13075;55.682;37.564;2022-07-06T10:14:04;17.05;;;14.60;;
25083;SDS011;13075;55.682;37.564;2022-07-06T10:16:31;19.20;;;14.65;;
25083;SDS011;13075;55.682;37.564;2022-07-06T10:19:01;20.38;;;18.33;;
25083;SDS011;13075;55.682;37.564;2022-07-06T10:21:29;20.27;;;18.27;;
25083;SDS011;13075;55.682;37.564;2022-07-06T10:23:55;17.30;;;15.65;;
25083;SDS011;13075;55.682;37.564;2022-07-06T10:26:25;18.73;;;16.77;;
25083;SDS011;13075;55.682;37.564;2022-07-06T10:28:51;15.60;;;14.05;;
25083;SDS011;13075;55.682;37.564;2022-07-06T10:31:17;17.92;;;14.88;;
25083;SDS011;13075;55.682;37.564;2022-07-06T10:33:44;16.70;;;14.02;;
25083;SDS011;13075;55.682;37.564;2022-07-06T10:36:11;17.38;;;15.68;;
25083;SDS011;13075;55.682;37.564;2022-07-06T10:38:37;22.02;;;18.27;;
25083;SDS011;13075;55.682;37.564;2022-07-06T10:41:04;18.85;;;15.55;;
25083;SDS011;13075;55.682;37.564;2022-07-06T10:43:32;16.80;;;15.07;;
25083;SDS011;13075;55.682;37.564;2022-07-06T10:45:59;22.80;;;15.27;;
25083;SDS011;13075;55.682;37.564;2022-07-06T10:48:39;17.48;;;15.23;;
25083;SDS011;13075;55.682;37.564;2022-07-06T10:51:12;19.17;;;14.00;;
25083;SDS011;13075;55.682;37.564;2022-07-06T10:53:49;16.70;;;14.98;;
25083;SDS011;13075;55.682;37.564;2022-07-06T10:56:36;14.73;;;13.32;;
25083;SDS011;13075;55.682;37.564;2022-07-06T10:59:11;15.93;;;13.57;;
25083;SDS011;13075;55.682;37.564;2022-07-06T11:04:37;13.95;;;12.55;;
25083;SDS011;13075;55.682;37.564;2022-07-06T11:07:10;15.77;;;13.57;;
25083;SDS011;13075;55.682;37.564;2022-07-06T11:09:38;15.77;;;14.18;;
25083;SDS011;13075;55.682;37.564;2022-07-06T11:12:19;13.85;;;12.27;;
25083;SDS011;13075;55.682;37.564;2022-07-06T11:14:46;19.00;;;13.52;;
25083;SDS011;13075;55.682;37.564;2022-07-06T11:17:12;13.63;;;12.32;;
25083;SDS011;13075;55.682;37.564;2022-07-06T11:19:47;15.50;;;11.45;;
25083;SDS011;13075;55.682;37.564;2022-07-06T11:22:20;13.05;;;11.50;;
25083;SDS011;13075;55.682;37.564;2022-07-06T11:24:46;15.13;;;13.25;;
25083;SDS011;13075;55.682;37.564;2022-07-06T11:27:12;13.15;;;11.20;;
25083;SDS011;13075;55.682;37.564;2022-07-06T11:29:38;17.33;;;12.65;;
25083;SDS011;13075;55.682;37.564;2022-07-06T11:32:05;18.20;;;12.43;;
25083;SDS011;13075;55.682;37.564;2022-07-06T11:34:35;14.00;;;11.38;;
25083;SDS011;13075;55.682;37.564;2022-07-06T11:37:03;14.95;;;11.52;;
25083;SDS011;13075;55.682;37.564;2022-07-06T11:39:31;17.48;;;12.65;;
25083;SDS011;13075;55.682;37.564;2022-07-06T11:41:58;15.63;;;13.65;;
25083;SDS011;13075;55.682;37.564;2022-07-06T11:44:24;14.52;;;13.05;;
25083;SDS011;13075;55.682;37.564;2022-07-06T11:46:50;15.48;;;13.90;;
25083;SDS011;13075;55.682;37.564;2022-07-06T11:49:16;15.13;;;13.63;;
25083;SDS011;13075;55.682;37.564;2022-07-06T11:51:44;17.63;;;15.07;;
25083;SDS011;13075;55.682;37.564;2022-07-06T11:54:11;16.55;;;13.82;;
25083;SDS011;13075;55.682;37.564;2022-07-06T11:56:37;18.65;;;16.63;;
25083;SDS011;13075;55.682;37.564;2022-07-06T11:59:10;17.63;;;15.27;;
25083;SDS011;13075;55.682;37.564;2022-07-06T12:01:36;15.55;;;13.85;;
25083;SDS011;13075;55.682;37.564;2022-07-06T12:04:06;17.52;;;15.57;;
25083;SDS011;13075;55.682;37.564;2022-07-06T12:06:32;18.00;;;16.25;;
25083;SDS011;13075;55.682;37.564;2022-07-06T12:08:59;20.60;;;14.63;;
25083;SDS011;13075;55.682;37.564;2022-07-06T12:11:38;20.52;;;15.60;;
25083;SDS011;13075;55.682;37.564;2022-07-06T12:14:18;16.70;;;14.02;;
25083;SDS011;13075;55.682;37.564;2022-07-06T12:16:46;14.77;;;13.40;;
25083;SDS011;13075;55.682;37.564;2022-07-06T12:19:14;14.50;;;13.10;;
25083;SDS011;13075;55.682;37.564;2022-07-06T12:21:45;17.77;;;15.98;;
25083;SDS011;13075;55.682;37.564;2022-07-06T12:24:25;17.75;;;14.93;;
25083;SDS011;13075;55.682;37.564;2022-07-06T12:26:58;17.10;;;15.27;;
25083;SDS011;13075;55.682;37.564;2022-07-06T12:29:35;16.80;;;15.07;;
25083;SDS011;13075;55.682;37.564;2022-07-06T12:32:00;15.48;;;14.07;;
25083;SDS011;13075;55.682;37.564;2022-07-06T12:34:27;15.20;;;13.80;;
25083;SDS011;13075;55.682;37.564;2022-07-06T12:37:04;17.88;;;14.75;;
25083;SDS011;13075;55.682;37.564;2022-07-06T12:39:32;15.10;;;13.70;;
25083;SDS011;13075;55.682;37.564;2022-07-06T12:42:05;22.50;;;15.05;;
25083;SDS011;13075;55.682;37.564;2022-07-06T12:44:31;17.27;;;15.13;;
25083;SDS011;13075;55.682;37.564;2022-07-06T12:49:30;15.65;;;14.15;;
25083;SDS011;13075;55.682;37.564;2022-07-06T12:51:57;16.27;;;14.60;;
25083;SDS011;13075;55.682;37.564;2022-07-06T12:54:24;18.70;;;15.02;;
25083;SDS011;13075;55.682;37.564;2022-07-06T12:57:11;17.98;;;14.73;;
25083;SDS011;13075;55.682;37.564;2022-07-06T12:59:41;17.52;;;15.65;;
25083;SDS011;13075;55.682;37.564;2022-07-06T13:02:18;18.55;;;15.43;;
25083;SDS011;13075;55.682;37.564;2022-07-06T13:05:00;16.63;;;15.13;;
25083;SDS011;13075;55.682;37.564;2022-07-06T13:07:28;21.77;;;16.30;;
25083;SDS011;13075;55.682;37.564;2022-07-06T13:10:00;17.95;;;15.00;;
25083;SDS011;13075;55.682;37.564;2022-07-06T13:12:28;16.70;;;14.85;;
25083;SDS011;13075;55.682;37.564;2022-07-06T13:14:54;18.00;;;16.13;;
25083;SDS011;13075;55.682;37.564;2022-07-06T13:17:20;22.85;;;19.23;;
25083;SDS011;13075;55.682;37.564;2022-07-06T13:19:45;19.95;;;14.73;;
25083;SDS011;13075;55.682;37.564;2022-07-06T13:22:11;16.13;;;14.43;;
25083;SDS011;13075;55.682;37.564;2022-07-06T13:24:37;21.13;;;12.88;;
25083;SDS011;13075;55.682;37.564;2022-07-06T13:27:03;21.65;;;14.88;;
25083;SDS011;13075;55.682;37.564;2022-07-06T13:29:29;21.85;;;14.45;;
25083;SDS011;13075;55.682;37.564;2022-07-06T13:31:55;15.27;;;13.77;;
25083;SDS011;13075;55.682;37.564;2022-07-06T13:34:20;23.85;;;14.50;;
25083;SDS011;13075;55.682;37.564;2022-07-06T13:36:46;19.23;;;14.20;;
25083;SDS011;13075;55.682;37.564;2022-07-06T13:39:12;16.45;;;13.75;;
25083;SDS011;13075;55.682;37.564;2022-07-06T13:41:38;13.93;;;12.27;;
25083;SDS011;13075;55.682;37.564;2022-07-06T13:44:04;15.07;;;13.32;;
25083;SDS011;13075;55.682;37.564;2022-07-06T13:46:30;15.30;;;12.23;;
25083;SDS011;13075;55.682;37.564;2022-07-06T13:48:56;18.35;;;14.40;;
25083;SDS011;13075;55.682;37.564;2022-07-06T13:51:23;15.65;;;13.48;;
25083;SDS011;13075;55.682;37.564;2022-07-06T13:53:49;16.83;;;12.32;;
25083;SDS011;13075;55.682;37.564;2022-07-06T13:56:16;18.90;;;16.48;;
25083;SDS011;13075;55.682;37.564;2022-07-06T13:58:42;17.65;;;15.02;;
25083;SDS011;13075;55.682;37.564;2022-07-06T14:01:08;16.67;;;14.85;;
25083;SDS011;13075;55.682;37.564;2022-07-06T14:03:34;19.45;;;15.13;;
25083;SDS011;13075;55.682;37.564;2022-07-06T14:06:02;16.45;;;14.75;;
25083;SDS011;13075;55.682;37.564;2022-07-06T14:08:29;17.08;;;14.98;;
25083;SDS011;13075;55.682;37.564;2022-07-06T14:10:55;17.48;;;15.63;;
25083;SDS011;13075;55.682;37.564;2022-07-06T14:13:22;18.20;;;16.50;;
25083;SDS011;13075;55.682;37.564;2022-07-06T14:15:48;17.63;;;13.27;;
25083;SDS011;13075;55.682;37.564;2022-07-06T14:18:14;16.92;;;13.48;;
25083;SDS011;13075;55.682;37.564;2022-07-06T14:20:45;24.67;;;14.85;;
25083;SDS011;13075;55.682;37.564;2022-07-06T14:23:12;21.48;;;15.05;;
25083;SDS011;13075;55.682;37.564;2022-07-06T14:25:40;16.13;;;13.57;;